George N — A8PQ5 — position and weather

sailwx.info

Track history (hours):
 
Tides and Currents Weather Stations Pressure Air Temp Water Temp Dewpoint Dewpoint Depression Visibility Wind Speed Wind Dir Waves Ship Positions

George N

Last reported at 2018-Jul-18 00:21 UTC. Time now 2018-Jul-18 00:59 UTC.
Position N 39°33' W 009°57'.

Length 205 m; draft 7.8 m.

Type: Ship. MMSI: 636013814.

Date/timePositionNaut miles runAvg speedWind from/ knotsBaromVisibWave heightAir tempDewpointWater temp
2018-Jul-18 00:21N 39°33' W 009°57'714.1
2018-Jul-17 23:50N 39°25' W 009°57'513.9
2018-Jul-17 23:30N 39°21' W 009°58'714.2
2018-Jul-17 23:01N 39°14' W 009°58'714.3
2018-Jul-17 22:31N 39°07' W 009°59'714.2
2018-Jul-17 22:00N 38°60' W 009°59'714.0
2018-Jul-17 21:30N 38°53' W 009°59'714.0
2018-Jul-17 21:00N 38°46' W 009°58'714.1
2018-Jul-17 20:30N 38°39' W 009°57'714.7
2018-Jul-17 20:01N 38°32' W 009°54'714.3
2018-Jul-17 19:30N 38°25' W 009°52'714.3
2018-Jul-17 19:00N 38°18' W 009°49'714.2
2018-Jul-17 18:30N 38°11' W 009°47'713.9
2018-Jul-17 18:00N 38°04' W 009°45'713.7
2018-Jul-17 17:30N 37°57' W 009°43'713.7
2018-Jul-17 17:00N 37°51' W 009°41'713.6
2018-Jul-17 16:30N 37°44' W 009°39'713.9
2018-Jul-17 16:00N 37°37' W 009°37'714.1
2018-Jul-17 15:30N 37°30' W 009°36'714.3
2018-Jul-17 15:00N 37°23' W 009°34'714.2
2018-Jul-17 14:30N 37°16' W 009°32'714.5
2018-Jul-17 14:00N 37°09' W 009°30'714.8
2018-Jul-17 13:30N 37°02' W 009°28'714.6
2018-Jul-17 13:00N 36°55' W 009°25'714.3
2018-Jul-17 12:30N 36°49' W 009°21'714.4
2018-Jul-17 12:00N 36°43' W 009°15'714.1
2018-Jul-17 11:30N 36°39' W 009°08'815.0
2018-Jul-17 11:00N 36°37' W 008°59'714.9
2018-Jul-17 10:30N 36°36' W 008°50'815.1
2018-Jul-17 10:00N 36°34' W 008°41'815.4
2018-Jul-17 09:30N 36°32' W 008°32'714.6
2018-Jul-17 09:00N 36°26' W 008°27'815.4
2018-Jul-17 08:30N 36°18' W 008°25'815.6
2018-Jul-17 07:59N 36°10' W 008°22'715.6
2018-Jul-17 07:30N 36°03' W 008°19'815.9
2018-Jul-17 06:58N 35°55' W 008°17'716.1
2018-Jul-17 06:30N 35°48' W 008°14'816.0
2018-Jul-17 06:00N 35°40' W 008°11'815.8
2018-Jul-17 05:30N 35°33' W 008°09'  
2018-Jul-11 14:26N 33°22' W 008°48'915.4
2018-Jul-11 13:53N 33°28' W 008°42'10316.3
2018-Jul-11 07:33N 34°50' W 007°26'2516.0
2018-Jul-11 05:58N 35°09' W 007°06'1515.8
2018-Jul-11 05:00N 35°21' W 006°54'3215.5
2018-Jul-11 02:57N 35°45' W 006°29'715.5
2018-Jul-11 02:30N 35°51' W 006°24'714.6
2018-Jul-11 02:00N 35°56' W 006°18'1414.5
2018-Jul-11 01:01N 35°57' W 006°01'013.6
2018-Jul-11 01:00N 35°57' W 006°00'2013.2
2018-Jul-10 23:30N 35°57' W 005°36'4 8.8
2018-Jul-10 23:00N 35°57' W 005°31'2 4.3
2018-Jul-10 22:29N 35°55' W 005°30'6 0.1
2018-Jul-09 05:29N 35°52' W 005°36'0 0.1
2018-Jul-09 04:59N 35°52' W 005°36'0 0.1
2018-Jul-09 04:29N 35°52' W 005°36'0 0.0
2018-Jul-08 23:29N 35°52' W 005°36'0 0.0
2018-Jul-08 22:59N 35°52' W 005°36'0 0.1
2018-Jul-08 22:29N 35°52' W 005°36'0 0.0
2018-Jul-08 20:09N 35°52' W 005°36'0 1.6
2018-Jul-08 19:58N 35°52' W 005°36'3 5.3
2018-Jul-08 19:29N 35°54' W 005°34'2 3.8
2018-Jul-08 19:00N 35°54' W 005°36'611.7
2018-Jul-08 18:30N 35°53' W 005°43'1612.2
2018-Jul-08 17:11N 35°53' W 006°03'  
Track history (hours):
 
Tides and Currents Weather Stations Pressure Air Temp Water Temp Dewpoint Dewpoint Depression Visibility Wind Speed Wind Dir Waves Ship Positions

George N

Last reported at 2018-Jul-18 00:21 UTC. Time now 2018-Jul-18 00:59 UTC.
Position N 39°33' W 009°57'.

Length 205 m; draft 7.8 m.

Type: Ship. MMSI: 636013814.

Date/timePositionNaut miles runAvg speedWind from/ knotsBaromVisibWave heightAir tempDewpointWater temp
2018-Jul-18 00:21N 39°33' W 009°57'714.1
2018-Jul-17 23:50N 39°25' W 009°57'513.9
2018-Jul-17 23:30N 39°21' W 009°58'714.2
2018-Jul-17 23:01N 39°14' W 009°58'714.3
2018-Jul-17 22:31N 39°07' W 009°59'714.2
2018-Jul-17 22:00N 38°60' W 009°59'714.0
2018-Jul-17 21:30N 38°53' W 009°59'714.0
2018-Jul-17 21:00N 38°46' W 009°58'714.1
2018-Jul-17 20:30N 38°39' W 009°57'714.7
2018-Jul-17 20:01N 38°32' W 009°54'714.3
2018-Jul-17 19:30N 38°25' W 009°52'714.3
2018-Jul-17 19:00N 38°18' W 009°49'714.2
2018-Jul-17 18:30N 38°11' W 009°47'713.9
2018-Jul-17 18:00N 38°04' W 009°45'713.7
2018-Jul-17 17:30N 37°57' W 009°43'713.7
2018-Jul-17 17:00N 37°51' W 009°41'713.6
2018-Jul-17 16:30N 37°44' W 009°39'713.9
2018-Jul-17 16:00N 37°37' W 009°37'714.1
2018-Jul-17 15:30N 37°30' W 009°36'714.3
2018-Jul-17 15:00N 37°23' W 009°34'714.2
2018-Jul-17 14:30N 37°16' W 009°32'714.5
2018-Jul-17 14:00N 37°09' W 009°30'714.8
2018-Jul-17 13:30N 37°02' W 009°28'714.6
2018-Jul-17 13:00N 36°55' W 009°25'714.3
2018-Jul-17 12:30N 36°49' W 009°21'714.4
2018-Jul-17 12:00N 36°43' W 009°15'714.1
2018-Jul-17 11:30N 36°39' W 009°08'815.0
2018-Jul-17 11:00N 36°37' W 008°59'714.9
2018-Jul-17 10:30N 36°36' W 008°50'815.1
2018-Jul-17 10:00N 36°34' W 008°41'815.4
2018-Jul-17 09:30N 36°32' W 008°32'714.6
2018-Jul-17 09:00N 36°26' W 008°27'815.4
2018-Jul-17 08:30N 36°18' W 008°25'815.6
2018-Jul-17 07:59N 36°10' W 008°22'715.6
2018-Jul-17 07:30N 36°03' W 008°19'815.9
2018-Jul-17 06:58N 35°55' W 008°17'716.1
2018-Jul-17 06:30N 35°48' W 008°14'816.0
2018-Jul-17 06:00N 35°40' W 008°11'815.8
2018-Jul-17 05:30N 35°33' W 008°09'  
2018-Jul-11 14:26N 33°22' W 008°48'915.4
2018-Jul-11 13:53N 33°28' W 008°42'10316.3
2018-Jul-11 07:33N 34°50' W 007°26'2516.0
2018-Jul-11 05:58N 35°09' W 007°06'1515.8
2018-Jul-11 05:00N 35°21' W 006°54'3215.5
2018-Jul-11 02:57N 35°45' W 006°29'715.5
2018-Jul-11 02:30N 35°51' W 006°24'714.6
2018-Jul-11 02:00N 35°56' W 006°18'1414.5
2018-Jul-11 01:01N 35°57' W 006°01'013.6
2018-Jul-11 01:00N 35°57' W 006°00'2013.2
2018-Jul-10 23:30N 35°57' W 005°36'4 8.8
2018-Jul-10 23:00N 35°57' W 005°31'2 4.3
2018-Jul-10 22:29N 35°55' W 005°30'6 0.1
2018-Jul-09 05:29N 35°52' W 005°36'0 0.1
2018-Jul-09 04:59N 35°52' W 005°36'0 0.1
2018-Jul-09 04:29N 35°52' W 005°36'0 0.0
2018-Jul-08 23:29N 35°52' W 005°36'0 0.0
2018-Jul-08 22:59N 35°52' W 005°36'0 0.1
2018-Jul-08 22:29N 35°52' W 005°36'0 0.0
2018-Jul-08 20:09N 35°52' W 005°36'0 1.6
2018-Jul-08 19:58N 35°52' W 005°36'3 5.3
2018-Jul-08 19:29N 35°54' W 005°34'2 3.8
2018-Jul-08 19:00N 35°54' W 005°36'611.7
2018-Jul-08 18:30N 35°53' W 005°43'1612.2
2018-Jul-08 17:11N 35°53' W 006°03'  

Dump ship's entire track history